sensor_id;sensor_type;location;lat;lon;timestamp;temperature;humidity
12967;DHT22;6548;49.996;8.238;2022-09-02T00:00:35;17.70;99.90
12967;DHT22;6548;49.996;8.238;2022-09-02T00:03:05;18.40;99.90
12967;DHT22;6548;49.996;8.238;2022-09-02T00:05:31;17.60;99.90
12967;DHT22;6548;49.996;8.238;2022-09-02T00:07:56;17.10;99.90
12967;DHT22;6548;49.996;8.238;2022-09-02T00:10:22;17.00;99.90
12967;DHT22;6548;49.996;8.238;2022-09-02T00:12:47;18.40;99.90
12967;DHT22;6548;49.996;8.238;2022-09-02T00:15:13;17.70;99.90
12967;DHT22;6548;49.996;8.238;2022-09-02T00:17:39;17.20;99.90
12967;DHT22;6548;49.996;8.238;2022-09-02T00:20:05;17.10;99.90
12967;DHT22;6548;49.996;8.238;2022-09-02T00:22:31;17.10;99.90
12967;DHT22;6548;49.996;8.238;2022-09-02T00:24:57;17.10;99.90
12967;DHT22;6548;49.996;8.238;2022-09-02T00:27:22;18.40;99.90
12967;DHT22;6548;49.996;8.238;2022-09-02T00:29:48;17.10;99.90
12967;DHT22;6548;49.996;8.238;2022-09-02T00:32:13;17.10;99.90
12967;DHT22;6548;49.996;8.238;2022-09-02T00:34:39;18.50;99.90
12967;DHT22;6548;49.996;8.238;2022-09-02T00:37:05;18.10;99.90
12967;DHT22;6548;49.996;8.238;2022-09-02T00:39:31;18.10;99.90
12967;DHT22;6548;49.996;8.238;2022-09-02T00:41:57;18.50;99.90
12967;DHT22;6548;49.996;8.238;2022-09-02T00:44:25;18.20;99.90
12967;DHT22;6548;49.996;8.238;2022-09-02T00:46:51;17.10;99.90
12967;DHT22;6548;49.996;8.238;2022-09-02T00:49:32;17.90;99.90
12967;DHT22;6548;49.996;8.238;2022-09-02T00:52:16;17.70;99.90
12967;DHT22;6548;49.996;8.238;2022-09-02T00:54:49;16.90;99.90
12967;DHT22;6548;49.996;8.238;2022-09-02T00:57:19;16.90;99.90
12967;DHT22;6548;49.996;8.238;2022-09-02T01:00:07;17.60;99.90
12967;DHT22;6548;49.996;8.238;2022-09-02T01:02:36;16.80;99.90
12967;DHT22;6548;49.996;8.238;2022-09-02T01:05:05;16.80;99.90
12967;DHT22;6548;49.996;8.238;2022-09-02T01:07:33;16.90;99.90
12967;DHT22;6548;49.996;8.238;2022-09-02T01:10:04;18.50;99.90
12967;DHT22;6548;49.996;8.238;2022-09-02T01:12:31;16.90;99.90
12967;DHT22;6548;49.996;8.238;2022-09-02T01:14:57;16.80;99.90
12967;DHT22;6548;49.996;8.238;2022-09-02T01:17:24;17.30;99.90
12967;DHT22;6548;49.996;8.238;2022-09-02T01:19:54;16.80;99.90
12967;DHT22;6548;49.996;8.238;2022-09-02T01:22:25;17.00;99.90
12967;DHT22;6548;49.996;8.238;2022-09-02T01:24:51;16.80;99.90
12967;DHT22;6548;49.996;8.238;2022-09-02T01:27:19;17.30;99.90
12967;DHT22;6548;49.996;8.238;2022-09-02T01:29:53;17.10;99.90
12967;DHT22;6548;49.996;8.238;2022-09-02T01:32:21;16.50;99.90
12967;DHT22;6548;49.996;8.238;2022-09-02T01:34:47;17.10;99.90
12967;DHT22;6548;49.996;8.238;2022-09-02T01:37:13;16.50;99.90
12967;DHT22;6548;49.996;8.238;2022-09-02T01:39:39;17.20;99.90
12967;DHT22;6548;49.996;8.238;2022-09-02T01:42:05;17.60;99.90
12967;DHT22;6548;49.996;8.238;2022-09-02T01:44:32;16.20;99.90
12967;DHT22;6548;49.996;8.238;2022-09-02T01:46:59;16.20;99.90
12967;DHT22;6548;49.996;8.238;2022-09-02T01:49:24;17.30;99.90
12967;DHT22;6548;49.996;8.238;2022-09-02T01:51:53;16.90;99.90
12967;DHT22;6548;49.996;8.238;2022-09-02T01:54:20;16.20;99.90
12967;DHT22;6548;49.996;8.238;2022-09-02T01:56:45;15.10;99.90
12967;DHT22;6548;49.996;8.238;2022-09-02T01:59:11;16.60;99.90
12967;DHT22;6548;49.996;8.238;2022-09-02T02:01:43;16.20;99.90
12967;DHT22;6548;49.996;8.238;2022-09-02T02:04:10;15.90;99.90
12967;DHT22;6548;49.996;8.238;2022-09-02T02:06:39;17.00;99.90
12967;DHT22;6548;49.996;8.238;2022-09-02T02:09:07;16.40;99.90
12967;DHT22;6548;49.996;8.238;2022-09-02T02:11:32;17.60;99.90
12967;DHT22;6548;49.996;8.238;2022-09-02T02:13:58;17.60;99.90
12967;DHT22;6548;49.996;8.238;2022-09-02T02:16:24;16.20;99.90
12967;DHT22;6548;49.996;8.238;2022-09-02T02:18:49;16.10;99.90
12967;DHT22;6548;49.996;8.238;2022-09-02T02:21:15;17.40;99.90
12967;DHT22;6548;49.996;8.238;2022-09-02T02:23:41;17.70;99.90
12967;DHT22;6548;49.996;8.238;2022-09-02T02:26:07;16.80;99.90
12967;DHT22;6548;49.996;8.238;2022-09-02T02:28:33;17.50;99.90
12967;DHT22;6548;49.996;8.238;2022-09-02T02:30:59;16.00;99.90
12967;DHT22;6548;49.996;8.238;2022-09-02T02:33:25;16.00;99.90
12967;DHT22;6548;49.996;8.238;2022-09-02T02:35:54;16.60;99.90
12967;DHT22;6548;49.996;8.238;2022-09-02T02:38:20;17.00;99.90
12967;DHT22;6548;49.996;8.238;2022-09-02T02:40:45;16.50;99.90
12967;DHT22;6548;49.996;8.238;2022-09-02T02:43:11;16.00;99.90
12967;DHT22;6548;49.996;8.238;2022-09-02T02:45:37;16.00;99.90
12967;DHT22;6548;49.996;8.238;2022-09-02T02:48:03;15.90;99.90
12967;DHT22;6548;49.996;8.238;2022-09-02T02:50:29;17.20;99.90
12967;DHT22;6548;49.996;8.238;2022-09-02T02:52:55;17.50;99.90
12967;DHT22;6548;49.996;8.238;2022-09-02T02:55:22;15.90;99.90
12967;DHT22;6548;49.996;8.238;2022-09-02T02:57:49;16.20;99.90
12967;DHT22;6548;49.996;8.238;2022-09-02T03:00:22;16.40;99.90
12967;DHT22;6548;49.996;8.238;2022-09-02T03:02:48;15.70;99.90
12967;DHT22;6548;49.996;8.238;2022-09-02T03:05:15;16.20;99.90
12967;DHT22;6548;49.996;8.238;2022-09-02T03:07:41;15.80;99.90
12967;DHT22;6548;49.996;8.238;2022-09-02T03:10:09;16.30;99.90
12967;DHT22;6548;49.996;8.238;2022-09-02T03:12:35;15.70;99.90
12967;DHT22;6548;49.996;8.238;2022-09-02T03:15:01;15.60;99.90
12967;DHT22;6548;49.996;8.238;2022-09-02T03:17:28;15.70;99.90
12967;DHT22;6548;49.996;8.238;2022-09-02T03:19:54;17.00;99.90
12967;DHT22;6548;49.996;8.238;2022-09-02T03:22:23;15.50;99.90
12967;DHT22;6548;49.996;8.238;2022-09-02T03:24:48;16.10;99.90
12967;DHT22;6548;49.996;8.238;2022-09-02T03:27:14;16.30;99.90
12967;DHT22;6548;49.996;8.238;2022-09-02T03:29:39;15.50;99.90
12967;DHT22;6548;49.996;8.238;2022-09-02T03:32:05;15.40;99.90
12967;DHT22;6548;49.996;8.238;2022-09-02T03:34:31;15.40;99.90
12967;DHT22;6548;49.996;8.238;2022-09-02T03:36:57;15.50;99.90
12967;DHT22;6548;49.996;8.238;2022-09-02T03:39:23;15.30;99.90
12967;DHT22;6548;49.996;8.238;2022-09-02T03:41:48;15.80;99.90
12967;DHT22;6548;49.996;8.238;2022-09-02T03:44:15;15.60;99.90
12967;DHT22;6548;49.996;8.238;2022-09-02T03:46:40;15.30;99.90
12967;DHT22;6548;49.996;8.238;2022-09-02T03:49:06;15.20;99.90
12967;DHT22;6548;49.996;8.238;2022-09-02T03:51:32;15.40;99.90
12967;DHT22;6548;49.996;8.238;2022-09-02T03:53:58;15.20;99.90
12967;DHT22;6548;49.996;8.238;2022-09-02T03:56:24;15.90;99.90
12967;DHT22;6548;49.996;8.238;2022-09-02T03:58:51;15.00;99.90
12967;DHT22;6548;49.996;8.238;2022-09-02T04:01:22;15.20;99.90
12967;DHT22;6548;49.996;8.238;2022-09-02T04:03:48;15.50;99.90
12967;DHT22;6548;49.996;8.238;2022-09-02T04:06:16;15.90;99.90
12967;DHT22;6548;49.996;8.238;2022-09-02T04:08:42;16.10;99.90
12967;DHT22;6548;49.996;8.238;2022-09-02T04:11:11;16.50;99.90
12967;DHT22;6548;49.996;8.238;2022-09-02T04:13:38;15.40;99.90
12967;DHT22;6548;49.996;8.238;2022-09-02T04:16:08;15.80;99.90
12967;DHT22;6548;49.996;8.238;2022-09-02T04:18:34;15.40;99.90
12967;DHT22;6548;49.996;8.238;2022-09-02T04:21:00;15.40;99.90
12967;DHT22;6548;49.996;8.238;2022-09-02T04:23:26;15.60;99.90
12967;DHT22;6548;49.996;8.238;2022-09-02T04:25:53;16.80;99.90
12967;DHT22;6548;49.996;8.238;2022-09-02T04:28:18;16.20;99.90
12967;DHT22;6548;49.996;8.238;2022-09-02T04:30:44;15.20;99.90
12967;DHT22;6548;49.996;8.238;2022-09-02T04:33:10;15.60;99.90
12967;DHT22;6548;49.996;8.238;2022-09-02T04:35:40;15.60;99.90
12967;DHT22;6548;49.996;8.238;2022-09-02T04:38:06;15.80;99.90
12967;DHT22;6548;49.996;8.238;2022-09-02T04:40:32;15.40;99.90
12967;DHT22;6548;49.996;8.238;2022-09-02T04:42:57;16.10;99.90
12967;DHT22;6548;49.996;8.238;2022-09-02T04:45:23;16.40;99.90
12967;DHT22;6548;49.996;8.238;2022-09-02T04:47:49;16.60;99.90
12967;DHT22;6548;49.996;8.238;2022-09-02T04:50:15;15.30;99.90
12967;DHT22;6548;49.996;8.238;2022-09-02T04:52:40;15.30;99.90
12967;DHT22;6548;49.996;8.238;2022-09-02T04:55:06;17.00;99.90
12967;DHT22;6548;49.996;8.238;2022-09-02T04:57:33;15.30;99.90
12967;DHT22;6548;49.996;8.238;2022-09-02T05:00:00;16.70;99.90
12967;DHT22;6548;49.996;8.238;2022-09-02T05:02:28;15.30;99.90
12967;DHT22;6548;49.996;8.238;2022-09-02T05:04:53;15.30;99.90
12967;DHT22;6548;49.996;8.238;2022-09-02T05:07:19;15.20;99.90
12967;DHT22;6548;49.996;8.238;2022-09-02T05:09:44;15.20;99.90
12967;DHT22;6548;49.996;8.238;2022-09-02T05:12:10;15.30;99.90
12967;DHT22;6548;49.996;8.238;2022-09-02T05:14:36;15.30;99.90
12967;DHT22;6548;49.996;8.238;2022-09-02T05:17:01;15.40;99.90
12967;DHT22;6548;49.996;8.238;2022-09-02T05:19:29;15.40;99.90
12967;DHT22;6548;49.996;8.238;2022-09-02T05:21:55;15.40;99.90
12967;DHT22;6548;49.996;8.238;2022-09-02T05:24:24;15.50;99.90
12967;DHT22;6548;49.996;8.238;2022-09-02T05:26:49;15.30;99.90
12967;DHT22;6548;49.996;8.238;2022-09-02T05:29:16;15.40;99.90
12967;DHT22;6548;49.996;8.238;2022-09-02T05:31:45;15.40;99.90
12967;DHT22;6548;49.996;8.238;2022-09-02T05:34:12;15.50;99.90
12967;DHT22;6548;49.996;8.238;2022-09-02T05:36:38;15.50;99.90
12967;DHT22;6548;49.996;8.238;2022-09-02T05:39:04;15.60;99.90
12967;DHT22;6548;49.996;8.238;2022-09-02T05:41:30;15.70;99.90
12967;DHT22;6548;49.996;8.238;2022-09-02T05:43:59;15.70;99.90
12967;DHT22;6548;49.996;8.238;2022-09-02T05:46:25;15.80;99.90
12967;DHT22;6548;49.996;8.238;2022-09-02T05:48:52;15.80;99.90
12967;DHT22;6548;49.996;8.238;2022-09-02T05:51:36;15.90;99.90
12967;DHT22;6548;49.996;8.238;2022-09-02T05:54:03;16.00;99.90
12967;DHT22;6548;49.996;8.238;2022-09-02T05:56:29;16.00;99.90
12967;DHT22;6548;49.996;8.238;2022-09-02T05:58:56;16.10;99.90
12967;DHT22;6548;49.996;8.238;2022-09-02T06:01:23;16.10;99.90
12967;DHT22;6548;49.996;8.238;2022-09-02T06:03:48;16.10;99.90
12967;DHT22;6548;49.996;8.238;2022-09-02T06:06:17;16.30;99.90
12967;DHT22;6548;49.996;8.238;2022-09-02T06:08:43;16.30;99.90
12967;DHT22;6548;49.996;8.238;2022-09-02T06:11:10;16.50;99.90
12967;DHT22;6548;49.996;8.238;2022-09-02T06:13:38;16.80;99.90
12967;DHT22;6548;49.996;8.238;2022-09-02T06:16:05;17.30;99.90
12967;DHT22;6548;49.996;8.238;2022-09-02T06:18:33;17.50;99.90
12967;DHT22;6548;49.996;8.238;2022-09-02T06:20:59;17.70;99.90
12967;DHT22;6548;49.996;8.238;2022-09-02T06:23:25;17.90;99.90
12967;DHT22;6548;49.996;8.238;2022-09-02T06:25:51;18.00;99.90
12967;DHT22;6548;49.996;8.238;2022-09-02T06:28:17;18.10;99.90
12967;DHT22;6548;49.996;8.238;2022-09-02T06:30:44;18.10;99.90
12967;DHT22;6548;49.996;8.238;2022-09-02T06:33:10;18.60;99.90
12967;DHT22;6548;49.996;8.238;2022-09-02T06:35:41;18.50;99.90
12967;DHT22;6548;49.996;8.238;2022-09-02T06:38:07;18.40;99.90
12967;DHT22;6548;49.996;8.238;2022-09-02T06:40:33;18.40;99.90
12967;DHT22;6548;49.996;8.238;2022-09-02T06:42:59;18.00;99.90
12967;DHT22;6548;49.996;8.238;2022-09-02T06:45:24;17.90;99.90
12967;DHT22;6548;49.996;8.238;2022-09-02T06:47:51;17.90;99.90
12967;DHT22;6548;49.996;8.238;2022-09-02T06:50:18;17.90;99.90
12967;DHT22;6548;49.996;8.238;2022-09-02T06:52:43;18.00;99.90
12967;DHT22;6548;49.996;8.238;2022-09-02T06:55:09;17.90;99.90
12967;DHT22;6548;49.996;8.238;2022-09-02T06:57:36;17.80;99.90
12967;DHT22;6548;49.996;8.238;2022-09-02T07:00:07;18.10;99.90
12967;DHT22;6548;49.996;8.238;2022-09-02T07:02:33;18.10;99.90
12967;DHT22;6548;49.996;8.238;2022-09-02T07:04:59;18.10;99.90
12967;DHT22;6548;49.996;8.238;2022-09-02T07:07:35;18.40;99.90
12967;DHT22;6548;49.996;8.238;2022-09-02T07:10:02;18.70;99.90
12967;DHT22;6548;49.996;8.238;2022-09-02T07:12:27;18.90;99.90
12967;DHT22;6548;49.996;8.238;2022-09-02T07:14:53;19.10;99.90
12967;DHT22;6548;49.996;8.238;2022-09-02T07:17:19;19.10;99.90
12967;DHT22;6548;49.996;8.238;2022-09-02T07:19:47;19.50;99.90
12967;DHT22;6548;49.996;8.238;2022-09-02T07:22:14;19.00;99.90
12967;DHT22;6548;49.996;8.238;2022-09-02T07:24:39;18.80;99.90
12967;DHT22;6548;49.996;8.238;2022-09-02T07:27:06;18.90;99.90
12967;DHT22;6548;49.996;8.238;2022-09-02T07:29:32;18.80;99.90
12967;DHT22;6548;49.996;8.238;2022-09-02T07:31:58;19.00;99.90
12967;DHT22;6548;49.996;8.238;2022-09-02T07:34:23;19.30;99.90
12967;DHT22;6548;49.996;8.238;2022-09-02T07:36:49;19.40;99.90
12967;DHT22;6548;49.996;8.238;2022-09-02T07:39:16;19.50;99.90
12967;DHT22;6548;49.996;8.238;2022-09-02T07:41:46;19.90;99.90
12967;DHT22;6548;49.996;8.238;2022-09-02T07:44:11;20.10;99.90
12967;DHT22;6548;49.996;8.238;2022-09-02T07:46:38;20.70;99.90
12967;DHT22;6548;49.996;8.238;2022-09-02T07:49:06;20.80;99.90
12967;DHT22;6548;49.996;8.238;2022-09-02T07:51:33;21.10;99.90
12967;DHT22;6548;49.996;8.238;2022-09-02T07:54:00;21.00;99.90
12967;DHT22;6548;49.996;8.238;2022-09-02T07:56:26;21.40;99.90
12967;DHT22;6548;49.996;8.238;2022-09-02T07:58:51;21.30;99.90
12967;DHT22;6548;49.996;8.238;2022-09-02T08:01:17;21.10;99.90
12967;DHT22;6548;49.996;8.238;2022-09-02T08:03:43;20.80;99.90
12967;DHT22;6548;49.996;8.238;2022-09-02T08:06:10;21.10;99.90
12967;DHT22;6548;49.996;8.238;2022-09-02T08:08:36;20.90;99.90
12967;DHT22;6548;49.996;8.238;2022-09-02T08:11:03;21.30;99.90
12967;DHT22;6548;49.996;8.238;2022-09-02T08:13:28;21.10;99.90
12967;DHT22;6548;49.996;8.238;2022-09-02T08:15:54;21.30;99.90
12967;DHT22;6548;49.996;8.238;2022-09-02T08:18:20;21.60;99.90
12967;DHT22;6548;49.996;8.238;2022-09-02T08:20:46;21.80;99.90
12967;DHT22;6548;49.996;8.238;2022-09-02T08:23:12;21.10;99.90
12967;DHT22;6548;49.996;8.238;2022-09-02T08:25:39;21.80;99.90
12967;DHT22;6548;49.996;8.238;2022-09-02T08:28:05;22.20;99.90
12967;DHT22;6548;49.996;8.238;2022-09-02T08:30:31;22.80;99.90
12967;DHT22;6548;49.996;8.238;2022-09-02T08:32:56;22.70;99.90
12967;DHT22;6548;49.996;8.238;2022-09-02T08:35:22;22.90;99.90
12967;DHT22;6548;49.996;8.238;2022-09-02T08:37:48;22.80;99.90
12967;DHT22;6548;49.996;8.238;2022-09-02T08:40:19;22.50;99.90
12967;DHT22;6548;49.996;8.238;2022-09-02T08:45:20;23.00;99.90
12967;DHT22;6548;49.996;8.238;2022-09-02T08:47:56;23.00;99.90
12967;DHT22;6548;49.996;8.238;2022-09-02T08:50:23;23.70;99.90
12967;DHT22;6548;49.996;8.238;2022-09-02T08:55:56;22.70;99.90
12967;DHT22;6548;49.996;8.238;2022-09-02T08:58:27;22.60;99.90
12967;DHT22;6548;49.996;8.238;2022-09-02T09:06:28;23.70;99.90
12967;DHT22;6548;49.996;8.238;2022-09-02T09:09:02;23.80;99.90
12967;DHT22;6548;49.996;8.238;2022-09-02T09:14:36;24.30;99.90
12967;DHT22;6548;49.996;8.238;2022-09-02T09:17:31;24.40;99.90
12967;DHT22;6548;49.996;8.238;2022-09-02T09:20:00;24.30;99.90
12967;DHT22;6548;49.996;8.238;2022-09-02T09:22:31;24.80;99.90
12967;DHT22;6548;49.996;8.238;2022-09-02T09:24:58;25.80;99.90
12967;DHT22;6548;49.996;8.238;2022-09-02T09:27:24;25.70;99.90
12967;DHT22;6548;49.996;8.238;2022-09-02T09:29:51;24.90;99.90
12967;DHT22;6548;49.996;8.238;2022-09-02T09:32:32;24.30;99.90
12967;DHT22;6548;49.996;8.238;2022-09-02T09:37:37;24.60;99.90
12967;DHT22;6548;49.996;8.238;2022-09-02T09:43:21;24.40;99.90
12967;DHT22;6548;49.996;8.238;2022-09-02T09:45:46;24.20;99.90
12967;DHT22;6548;49.996;8.238;2022-09-02T09:51:11;25.80;99.90
12967;DHT22;6548;49.996;8.238;2022-09-02T09:53:38;26.10;99.90
12967;DHT22;6548;49.996;8.238;2022-09-02T10:03:44;24.90;99.90
12967;DHT22;6548;49.996;8.238;2022-09-02T10:06:19;25.30;99.90
12967;DHT22;6548;49.996;8.238;2022-09-02T10:08:58;25.60;99.90
12967;DHT22;6548;49.996;8.238;2022-09-02T10:11:28;26.40;99.90
12967;DHT22;6548;49.996;8.238;2022-09-02T10:13:59;25.70;99.90
12967;DHT22;6548;49.996;8.238;2022-09-02T10:16:56;26.30;99.90
12967;DHT22;6548;49.996;8.238;2022-09-02T10:22:43;24.60;99.90
12967;DHT22;6548;49.996;8.238;2022-09-02T10:30:31;25.60;99.90
12967;DHT22;6548;49.996;8.238;2022-09-02T10:33:13;26.10;99.90
12967;DHT22;6548;49.996;8.238;2022-09-02T10:35:43;25.90;99.90
12967;DHT22;6548;49.996;8.238;2022-09-02T10:49:23;25.70;99.90
12967;DHT22;6548;49.996;8.238;2022-09-02T10:54:48;26.00;99.90
12967;DHT22;6548;49.996;8.238;2022-09-02T10:57:29;26.40;99.90
12967;DHT22;6548;49.996;8.238;2022-09-02T11:02:29;25.40;99.90
12967;DHT22;6548;49.996;8.238;2022-09-02T11:05:03;25.50;99.90
12967;DHT22;6548;49.996;8.238;2022-09-02T11:07:40;25.40;99.90
12967;DHT22;6548;49.996;8.238;2022-09-02T11:10:22;25.60;99.90
12967;DHT22;6548;49.996;8.238;2022-09-02T11:13:01;25.60;99.90
12967;DHT22;6548;49.996;8.238;2022-09-02T11:15:46;26.00;99.90
12967;DHT22;6548;49.996;8.238;2022-09-02T11:18:27;26.00;99.90
12967;DHT22;6548;49.996;8.238;2022-09-02T11:21:16;26.30;99.90
12967;DHT22;6548;49.996;8.238;2022-09-02T11:23:52;25.50;99.80
12967;DHT22;6548;49.996;8.238;2022-09-02T11:26:45;25.20;99.90
12967;DHT22;6548;49.996;8.238;2022-09-02T11:29:17;25.20;99.90
12967;DHT22;6548;49.996;8.238;2022-09-02T11:32:00;25.00;99.90
12967;DHT22;6548;49.996;8.238;2022-09-02T11:37:06;26.20;99.90
12967;DHT22;6548;49.996;8.238;2022-09-02T11:39:44;25.20;99.90
12967;DHT22;6548;49.996;8.238;2022-09-02T11:42:49;25.70;99.90
12967;DHT22;6548;49.996;8.238;2022-09-02T11:50:57;24.70;99.90
12967;DHT22;6548;49.996;8.238;2022-09-02T11:53:34;24.80;99.90
12967;DHT22;6548;49.996;8.238;2022-09-02T11:58:41;25.70;99.90
12967;DHT22;6548;49.996;8.238;2022-09-02T12:03:46;25.60;99.90
12967;DHT22;6548;49.996;8.238;2022-09-02T12:06:16;25.70;99.90
12967;DHT22;6548;49.996;8.238;2022-09-02T12:11:42;24.80;99.90
12967;DHT22;6548;49.996;8.238;2022-09-02T12:17:06;25.20;99.90
12967;DHT22;6548;49.996;8.238;2022-09-02T12:24:52;25.10;99.90
12967;DHT22;6548;49.996;8.238;2022-09-02T12:27:36;25.00;99.90
12967;DHT22;6548;49.996;8.238;2022-09-02T12:30:08;25.70;99.90
12967;DHT22;6548;49.996;8.238;2022-09-02T12:41:05;27.10;98.40
12967;DHT22;6548;49.996;8.238;2022-09-02T12:46:54;25.70;99.40
12967;DHT22;6548;49.996;8.238;2022-09-02T12:52:08;25.70;99.90
12967;DHT22;6548;49.996;8.238;2022-09-02T12:57:06;26.80;98.10
12967;DHT22;6548;49.996;8.238;2022-09-02T12:59:37;26.00;98.40
12967;DHT22;6548;49.996;8.238;2022-09-02T13:05:12;26.50;98.20
12967;DHT22;6548;49.996;8.238;2022-09-02T13:16:21;26.70;96.10
12967;DHT22;6548;49.996;8.238;2022-09-02T13:22:00;26.10;96.60
12967;DHT22;6548;49.996;8.238;2022-09-02T13:24:58;26.20;96.70
12967;DHT22;6548;49.996;8.238;2022-09-02T13:33:34;29.30;92.70
12967;DHT22;6548;49.996;8.238;2022-09-02T13:36:00;30.00;91.60
12967;DHT22;6548;49.996;8.238;2022-09-02T13:38:28;28.60;92.00
12967;DHT22;6548;49.996;8.238;2022-09-02T13:40:54;28.20;92.30
12967;DHT22;6548;49.996;8.238;2022-09-02T13:43:22;27.40;91.80
12967;DHT22;6548;49.996;8.238;2022-09-02T13:45:50;27.20;92.80
12967;DHT22;6548;49.996;8.238;2022-09-02T13:48:30;27.10;92.60
12967;DHT22;6548;49.996;8.238;2022-09-02T13:51:01;28.00;92.70
12967;DHT22;6548;49.996;8.238;2022-09-02T13:53:35;28.80;91.60
12967;DHT22;6548;49.996;8.238;2022-09-02T13:56:05;28.50;91.30
12967;DHT22;6548;49.996;8.238;2022-09-02T13:58:34;28.20;91.80
12967;DHT22;6548;49.996;8.238;2022-09-02T14:03:48;28.70;91.20
12967;DHT22;6548;49.996;8.238;2022-09-02T14:06:16;27.60;90.90
12967;DHT22;6548;49.996;8.238;2022-09-02T14:08:43;27.40;91.60
12967;DHT22;6548;49.996;8.238;2022-09-02T14:11:14;26.50;91.80
12967;DHT22;6548;49.996;8.238;2022-09-02T14:13:46;26.00;92.10
12967;DHT22;6548;49.996;8.238;2022-09-02T14:16:36;26.10;91.80
12967;DHT22;6548;49.996;8.238;2022-09-02T14:19:25;25.90;91.70
12967;DHT22;6548;49.996;8.238;2022-09-02T14:21:55;26.60;92.20
12967;DHT22;6548;49.996;8.238;2022-09-02T14:24:22;27.00;91.60
12967;DHT22;6548;49.996;8.238;2022-09-02T14:26:50;27.10;91.60
12967;DHT22;6548;49.996;8.238;2022-09-02T14:29:18;26.70;91.50
12967;DHT22;6548;49.996;8.238;2022-09-02T14:31:44;26.20;91.50
12967;DHT22;6548;49.996;8.238;2022-09-02T14:34:30;27.00;91.80
12967;DHT22;6548;49.996;8.238;2022-09-02T14:36:55;26.30;90.80
12967;DHT22;6548;49.996;8.238;2022-09-02T14:39:21;27.00;91.10
12967;DHT22;6548;49.996;8.238;2022-09-02T14:41:51;26.10;92.10
12967;DHT22;6548;49.996;8.238;2022-09-02T14:44:29;27.30;92.00
12967;DHT22;6548;49.996;8.238;2022-09-02T14:47:03;28.50;91.00
12967;DHT22;6548;49.996;8.238;2022-09-02T14:49:33;28.70;90.50
12967;DHT22;6548;49.996;8.238;2022-09-02T14:52:02;27.80;90.70
12967;DHT22;6548;49.996;8.238;2022-09-02T14:54:50;26.80;91.90
12967;DHT22;6548;49.996;8.238;2022-09-02T14:57:23;27.00;92.00
12967;DHT22;6548;49.996;8.238;2022-09-02T14:59:50;27.00;91.90
12967;DHT22;6548;49.996;8.238;2022-09-02T15:02:31;27.30;92.30
12967;DHT22;6548;49.996;8.238;2022-09-02T15:04:59;27.70;91.80
12967;DHT22;6548;49.996;8.238;2022-09-02T15:07:26;26.70;92.10
12967;DHT22;6548;49.996;8.238;2022-09-02T15:09:52;26.10;92.80
12967;DHT22;6548;49.996;8.238;2022-09-02T15:12:21;26.00;92.80
12967;DHT22;6548;49.996;8.238;2022-09-02T15:14:51;26.60;93.10
12967;DHT22;6548;49.996;8.238;2022-09-02T15:17:17;26.80;91.90
12967;DHT22;6548;49.996;8.238;2022-09-02T15:19:43;27.10;91.80
12967;DHT22;6548;49.996;8.238;2022-09-02T15:22:09;27.60;91.70
12967;DHT22;6548;49.996;8.238;2022-09-02T15:24:34;27.00;91.30
12967;DHT22;6548;49.996;8.238;2022-09-02T15:27:00;26.20;92.10
12967;DHT22;6548;49.996;8.238;2022-09-02T15:29:25;26.60;92.10
12967;DHT22;6548;49.996;8.238;2022-09-02T15:31:52;26.60;91.70
12967;DHT22;6548;49.996;8.238;2022-09-02T15:34:19;26.70;90.90
12967;DHT22;6548;49.996;8.238;2022-09-02T15:36:45;26.30;90.90
12967;DHT22;6548;49.996;8.238;2022-09-02T15:39:10;26.00;90.90
12967;DHT22;6548;49.996;8.238;2022-09-02T15:41:36;26.20;90.90
12967;DHT22;6548;49.996;8.238;2022-09-02T15:44:04;26.50;91.20
12967;DHT22;6548;49.996;8.238;2022-09-02T15:46:32;26.50;91.40
12967;DHT22;6548;49.996;8.238;2022-09-02T15:49:04;26.40;91.20
12967;DHT22;6548;49.996;8.238;2022-09-02T15:51:31;26.20;91.10
12967;DHT22;6548;49.996;8.238;2022-09-02T15:54:12;26.40;91.30
12967;DHT22;6548;49.996;8.238;2022-09-02T15:56:40;26.60;90.90
12967;DHT22;6548;49.996;8.238;2022-09-02T15:59:06;26.80;91.00
12967;DHT22;6548;49.996;8.238;2022-09-02T16:01:35;26.90;90.70
12967;DHT22;6548;49.996;8.238;2022-09-02T16:04:03;27.00;90.90
12967;DHT22;6548;49.996;8.238;2022-09-02T16:06:30;26.70;90.80
12967;DHT22;6548;49.996;8.238;2022-09-02T16:08:56;26.20;90.80
12967;DHT22;6548;49.996;8.238;2022-09-02T16:11:22;25.90;91.40
12967;DHT22;6548;49.996;8.238;2022-09-02T16:13:48;26.50;91.60
12967;DHT22;6548;49.996;8.238;2022-09-02T16:16:15;27.70;90.90
12967;DHT22;6548;49.996;8.238;2022-09-02T16:18:41;27.60;90.30
12967;DHT22;6548;49.996;8.238;2022-09-02T16:21:09;26.60;90.60
12967;DHT22;6548;49.996;8.238;2022-09-02T16:23:35;26.20;91.10
12967;DHT22;6548;49.996;8.238;2022-09-02T16:26:21;26.20;91.20
12967;DHT22;6548;49.996;8.238;2022-09-02T16:28:47;26.40;91.20
12967;DHT22;6548;49.996;8.238;2022-09-02T16:31:16;26.10;90.90
12967;DHT22;6548;49.996;8.238;2022-09-02T16:33:43;25.80;91.60
12967;DHT22;6548;49.996;8.238;2022-09-02T16:36:09;25.90;91.20
12967;DHT22;6548;49.996;8.238;2022-09-02T16:38:35;26.10;91.20
12967;DHT22;6548;49.996;8.238;2022-09-02T16:41:01;25.70;91.40
12967;DHT22;6548;49.996;8.238;2022-09-02T16:43:30;25.70;91.50
12967;DHT22;6548;49.996;8.238;2022-09-02T16:45:58;25.70;91.40
12967;DHT22;6548;49.996;8.238;2022-09-02T16:48:28;25.60;91.60
12967;DHT22;6548;49.996;8.238;2022-09-02T16:50:54;26.00;91.50
12967;DHT22;6548;49.996;8.238;2022-09-02T16:53:19;26.00;91.30
12967;DHT22;6548;49.996;8.238;2022-09-02T16:55:45;25.40;91.30
12967;DHT22;6548;49.996;8.238;2022-09-02T16:58:12;25.50;91.50
12967;DHT22;6548;49.996;8.238;2022-09-02T17:00:39;25.50;92.00
12967;DHT22;6548;49.996;8.238;2022-09-02T17:03:06;25.30;91.70
12967;DHT22;6548;49.996;8.238;2022-09-02T17:05:32;25.50;91.90
12967;DHT22;6548;49.996;8.238;2022-09-02T17:07:58;25.20;91.80
12967;DHT22;6548;49.996;8.238;2022-09-02T17:10:26;24.90;91.80
12967;DHT22;6548;49.996;8.238;2022-09-02T17:12:53;24.50;92.30
12967;DHT22;6548;49.996;8.238;2022-09-02T17:15:20;24.70;92.40
12967;DHT22;6548;49.996;8.238;2022-09-02T17:17:45;24.70;92.30
12967;DHT22;6548;49.996;8.238;2022-09-02T17:20:11;24.40;92.40
12967;DHT22;6548;49.996;8.238;2022-09-02T17:22:38;24.20;92.50
12967;DHT22;6548;49.996;8.238;2022-09-02T17:25:04;24.40;92.70
12967;DHT22;6548;49.996;8.238;2022-09-02T17:27:30;24.00;92.90
12967;DHT22;6548;49.996;8.238;2022-09-02T17:29:57;23.90;93.00
12967;DHT22;6548;49.996;8.238;2022-09-02T17:32:24;23.70;93.20
12967;DHT22;6548;49.996;8.238;2022-09-02T17:34:50;23.60;93.30
12967;DHT22;6548;49.996;8.238;2022-09-02T17:37:16;24.10;93.80
12967;DHT22;6548;49.996;8.238;2022-09-02T17:39:42;23.30;94.00
12967;DHT22;6548;49.996;8.238;2022-09-02T17:42:07;23.30;94.10
12967;DHT22;6548;49.996;8.238;2022-09-02T17:44:37;23.20;94.40
12967;DHT22;6548;49.996;8.238;2022-09-02T17:47:10;23.10;94.80
12967;DHT22;6548;49.996;8.238;2022-09-02T17:49:37;23.00;94.80
12967;DHT22;6548;49.996;8.238;2022-09-02T17:52:04;23.00;95.10
12967;DHT22;6548;49.996;8.238;2022-09-02T17:54:36;22.90;95.20